sensor_id;sensor_type;location;lat;lon;timestamp;temperature;humidity
17992;DHT22;9121;50.926;5.340;2023-08-07T00:00:57;14.00;99.90
17992;DHT22;9121;50.926;5.340;2023-08-07T00:03:24;14.00;99.90
17992;DHT22;9121;50.926;5.340;2023-08-07T00:05:51;13.90;99.90
17992;DHT22;9121;50.926;5.340;2023-08-07T00:08:19;14.00;99.90
17992;DHT22;9121;50.926;5.340;2023-08-07T00:10:46;13.90;99.90
17992;DHT22;9121;50.926;5.340;2023-08-07T00:13:14;13.90;99.90
17992;DHT22;9121;50.926;5.340;2023-08-07T00:15:41;13.90;99.90
17992;DHT22;9121;50.926;5.340;2023-08-07T00:18:08;13.90;99.90
17992;DHT22;9121;50.926;5.340;2023-08-07T00:20:35;13.90;99.90
17992;DHT22;9121;50.926;5.340;2023-08-07T00:23:02;14.00;99.90
17992;DHT22;9121;50.926;5.340;2023-08-07T00:25:30;14.00;99.90
17992;DHT22;9121;50.926;5.340;2023-08-07T00:27:57;14.00;99.90
17992;DHT22;9121;50.926;5.340;2023-08-07T00:30:24;14.00;99.90
17992;DHT22;9121;50.926;5.340;2023-08-07T00:32:51;14.10;99.90
17992;DHT22;9121;50.926;5.340;2023-08-07T00:35:18;14.00;99.90
17992;DHT22;9121;50.926;5.340;2023-08-07T00:37:45;14.10;99.90
17992;DHT22;9121;50.926;5.340;2023-08-07T00:40:12;14.10;99.90
17992;DHT22;9121;50.926;5.340;2023-08-07T00:42:40;14.10;99.90
17992;DHT22;9121;50.926;5.340;2023-08-07T00:45:08;14.00;99.90
17992;DHT22;9121;50.926;5.340;2023-08-07T00:47:35;14.10;99.90
17992;DHT22;9121;50.926;5.340;2023-08-07T00:50:04;14.10;99.90
17992;DHT22;9121;50.926;5.340;2023-08-07T00:52:32;14.10;99.90
17992;DHT22;9121;50.926;5.340;2023-08-07T00:54:59;14.10;99.90
17992;DHT22;9121;50.926;5.340;2023-08-07T00:57:26;14.10;99.90
17992;DHT22;9121;50.926;5.340;2023-08-07T00:59:55;14.10;99.90
17992;DHT22;9121;50.926;5.340;2023-08-07T01:02:22;14.00;99.90
17992;DHT22;9121;50.926;5.340;2023-08-07T01:04:50;14.00;99.90
17992;DHT22;9121;50.926;5.340;2023-08-07T01:07:17;14.00;99.90
17992;DHT22;9121;50.926;5.340;2023-08-07T01:09:44;14.00;99.90
17992;DHT22;9121;50.926;5.340;2023-08-07T01:12:15;14.00;99.90
17992;DHT22;9121;50.926;5.340;2023-08-07T01:14:51;14.00;99.90
17992;DHT22;9121;50.926;5.340;2023-08-07T01:17:22;14.00;99.90
17992;DHT22;9121;50.926;5.340;2023-08-07T01:19:50;14.00;99.90
17992;DHT22;9121;50.926;5.340;2023-08-07T01:22:20;14.00;99.90
17992;DHT22;9121;50.926;5.340;2023-08-07T01:24:48;14.00;99.90
17992;DHT22;9121;50.926;5.340;2023-08-07T01:27:28;13.90;99.90
17992;DHT22;9121;50.926;5.340;2023-08-07T01:30:01;13.90;99.90
17992;DHT22;9121;50.926;5.340;2023-08-07T01:32:35;13.90;99.90
17992;DHT22;9121;50.926;5.340;2023-08-07T01:35:05;13.80;99.90
17992;DHT22;9121;50.926;5.340;2023-08-07T01:37:37;13.80;99.90
17992;DHT22;9121;50.926;5.340;2023-08-07T01:40:07;13.90;99.90
17992;DHT22;9121;50.926;5.340;2023-08-07T01:42:35;13.90;99.90
17992;DHT22;9121;50.926;5.340;2023-08-07T01:45:03;13.90;99.90
17992;DHT22;9121;50.926;5.340;2023-08-07T01:47:30;13.90;99.90
17992;DHT22;9121;50.926;5.340;2023-08-07T01:49:57;14.00;99.90
17992;DHT22;9121;50.926;5.340;2023-08-07T01:52:25;13.90;99.90
17992;DHT22;9121;50.926;5.340;2023-08-07T01:54:54;13.90;99.90
17992;DHT22;9121;50.926;5.340;2023-08-07T01:57:21;13.80;99.90
17992;DHT22;9121;50.926;5.340;2023-08-07T01:59:47;13.90;99.90
17992;DHT22;9121;50.926;5.340;2023-08-07T02:02:14;13.90;99.90
17992;DHT22;9121;50.926;5.340;2023-08-07T02:04:41;13.90;99.90
17992;DHT22;9121;50.926;5.340;2023-08-07T02:07:08;13.90;99.90
17992;DHT22;9121;50.926;5.340;2023-08-07T02:09:35;13.90;99.90
17992;DHT22;9121;50.926;5.340;2023-08-07T02:12:05;14.00;99.90
17992;DHT22;9121;50.926;5.340;2023-08-07T02:14:32;14.00;99.90
17992;DHT22;9121;50.926;5.340;2023-08-07T02:16:59;14.00;99.90
17992;DHT22;9121;50.926;5.340;2023-08-07T02:19:26;14.10;99.90
17992;DHT22;9121;50.926;5.340;2023-08-07T02:21:53;14.10;99.90
17992;DHT22;9121;50.926;5.340;2023-08-07T02:24:20;14.10;99.90
17992;DHT22;9121;50.926;5.340;2023-08-07T02:26:47;14.00;99.90
17992;DHT22;9121;50.926;5.340;2023-08-07T02:29:15;14.00;99.90
17992;DHT22;9121;50.926;5.340;2023-08-07T02:31:42;14.10;99.90
17992;DHT22;9121;50.926;5.340;2023-08-07T02:34:09;14.10;99.90
17992;DHT22;9121;50.926;5.340;2023-08-07T02:36:36;14.20;99.90
17992;DHT22;9121;50.926;5.340;2023-08-07T02:39:04;14.10;99.90
17992;DHT22;9121;50.926;5.340;2023-08-07T02:41:31;14.00;99.90
17992;DHT22;9121;50.926;5.340;2023-08-07T02:43:58;14.10;99.90
17992;DHT22;9121;50.926;5.340;2023-08-07T02:46:26;14.10;99.90
17992;DHT22;9121;50.926;5.340;2023-08-07T02:48:53;14.10;99.90
17992;DHT22;9121;50.926;5.340;2023-08-07T02:51:20;14.10;99.90
17992;DHT22;9121;50.926;5.340;2023-08-07T02:53:47;14.00;99.90
17992;DHT22;9121;50.926;5.340;2023-08-07T02:56:13;14.00;99.90
17992;DHT22;9121;50.926;5.340;2023-08-07T02:58:40;14.00;99.90
17992;DHT22;9121;50.926;5.340;2023-08-07T03:01:08;14.00;99.90
17992;DHT22;9121;50.926;5.340;2023-08-07T03:03:36;13.90;99.90
17992;DHT22;9121;50.926;5.340;2023-08-07T03:06:03;13.90;99.90
17992;DHT22;9121;50.926;5.340;2023-08-07T03:08:30;13.90;99.90
17992;DHT22;9121;50.926;5.340;2023-08-07T03:10:57;13.90;99.90
17992;DHT22;9121;50.926;5.340;2023-08-07T03:13:25;14.00;99.90
17992;DHT22;9121;50.926;5.340;2023-08-07T03:15:58;14.00;99.90
17992;DHT22;9121;50.926;5.340;2023-08-07T03:18:26;13.90;99.90
17992;DHT22;9121;50.926;5.340;2023-08-07T03:20:54;13.90;99.90
17992;DHT22;9121;50.926;5.340;2023-08-07T03:23:21;13.90;99.90
17992;DHT22;9121;50.926;5.340;2023-08-07T03:25:48;13.80;99.90
17992;DHT22;9121;50.926;5.340;2023-08-07T03:28:15;13.80;99.90
17992;DHT22;9121;50.926;5.340;2023-08-07T03:30:42;13.80;99.90
17992;DHT22;9121;50.926;5.340;2023-08-07T03:33:10;13.80;99.90
17992;DHT22;9121;50.926;5.340;2023-08-07T03:35:37;13.80;99.90
17992;DHT22;9121;50.926;5.340;2023-08-07T03:38:05;13.70;99.90
17992;DHT22;9121;50.926;5.340;2023-08-07T03:40:33;13.60;99.90
17992;DHT22;9121;50.926;5.340;2023-08-07T03:43:00;13.60;99.90
17992;DHT22;9121;50.926;5.340;2023-08-07T03:45:27;13.50;99.90
17992;DHT22;9121;50.926;5.340;2023-08-07T03:47:54;13.50;99.90
17992;DHT22;9121;50.926;5.340;2023-08-07T03:50:21;13.50;99.90
17992;DHT22;9121;50.926;5.340;2023-08-07T03:52:47;13.50;99.90
17992;DHT22;9121;50.926;5.340;2023-08-07T03:55:16;13.50;99.90
17992;DHT22;9121;50.926;5.340;2023-08-07T03:57:43;13.50;99.90
17992;DHT22;9121;50.926;5.340;2023-08-07T04:00:11;13.50;99.90
17992;DHT22;9121;50.926;5.340;2023-08-07T04:02:39;13.50;99.90
17992;DHT22;9121;50.926;5.340;2023-08-07T04:05:06;13.40;99.90
17992;DHT22;9121;50.926;5.340;2023-08-07T04:07:33;13.30;99.90
17992;DHT22;9121;50.926;5.340;2023-08-07T04:10:00;13.30;99.90
17992;DHT22;9121;50.926;5.340;2023-08-07T04:12:29;13.30;99.90
17992;DHT22;9121;50.926;5.340;2023-08-07T04:14:56;13.20;99.90
17992;DHT22;9121;50.926;5.340;2023-08-07T04:17:23;13.20;99.90
17992;DHT22;9121;50.926;5.340;2023-08-07T04:19:50;13.20;99.90
17992;DHT22;9121;50.926;5.340;2023-08-07T04:22:17;13.20;99.90
17992;DHT22;9121;50.926;5.340;2023-08-07T04:24:44;13.30;99.90
17992;DHT22;9121;50.926;5.340;2023-08-07T04:27:11;13.20;99.90
17992;DHT22;9121;50.926;5.340;2023-08-07T04:29:40;13.20;99.90
17992;DHT22;9121;50.926;5.340;2023-08-07T04:32:07;13.20;99.90
17992;DHT22;9121;50.926;5.340;2023-08-07T04:34:34;13.20;99.90
17992;DHT22;9121;50.926;5.340;2023-08-07T04:37:01;13.20;99.90
17992;DHT22;9121;50.926;5.340;2023-08-07T04:39:28;13.30;99.90
17992;DHT22;9121;50.926;5.340;2023-08-07T04:41:56;13.30;99.90
17992;DHT22;9121;50.926;5.340;2023-08-07T04:44:23;13.30;99.90
17992;DHT22;9121;50.926;5.340;2023-08-07T04:46:51;13.30;99.90
17992;DHT22;9121;50.926;5.340;2023-08-07T04:49:18;13.40;99.90
17992;DHT22;9121;50.926;5.340;2023-08-07T04:51:45;13.30;99.90
17992;DHT22;9121;50.926;5.340;2023-08-07T04:54:12;13.30;99.90
17992;DHT22;9121;50.926;5.340;2023-08-07T04:56:39;13.30;99.90
17992;DHT22;9121;50.926;5.340;2023-08-07T04:59:07;13.30;99.90
17992;DHT22;9121;50.926;5.340;2023-08-07T05:01:34;13.40;99.90
17992;DHT22;9121;50.926;5.340;2023-08-07T05:04:03;13.40;99.90
17992;DHT22;9121;50.926;5.340;2023-08-07T05:06:30;13.40;99.90
17992;DHT22;9121;50.926;5.340;2023-08-07T05:08:57;13.40;99.90
17992;DHT22;9121;50.926;5.340;2023-08-07T05:11:24;13.40;99.90
17992;DHT22;9121;50.926;5.340;2023-08-07T05:13:51;13.40;99.90
17992;DHT22;9121;50.926;5.340;2023-08-07T05:16:18;13.40;99.90
17992;DHT22;9121;50.926;5.340;2023-08-07T05:18:45;13.40;99.90
17992;DHT22;9121;50.926;5.340;2023-08-07T05:21:13;13.40;99.90
17992;DHT22;9121;50.926;5.340;2023-08-07T05:23:41;13.40;99.90
17992;DHT22;9121;50.926;5.340;2023-08-07T05:26:08;13.40;99.90
17992;DHT22;9121;50.926;5.340;2023-08-07T05:28:34;13.40;99.90
17992;DHT22;9121;50.926;5.340;2023-08-07T05:31:01;13.50;99.90
17992;DHT22;9121;50.926;5.340;2023-08-07T05:33:28;13.50;99.90
17992;DHT22;9121;50.926;5.340;2023-08-07T05:35:55;13.50;99.90
17992;DHT22;9121;50.926;5.340;2023-08-07T05:38:23;13.60;99.90
17992;DHT22;9121;50.926;5.340;2023-08-07T05:40:50;13.60;99.90
17992;DHT22;9121;50.926;5.340;2023-08-07T05:43:17;13.60;99.90
17992;DHT22;9121;50.926;5.340;2023-08-07T05:45:44;13.70;99.90
17992;DHT22;9121;50.926;5.340;2023-08-07T05:48:12;13.80;99.90
17992;DHT22;9121;50.926;5.340;2023-08-07T05:50:39;13.80;99.90
17992;DHT22;9121;50.926;5.340;2023-08-07T05:53:06;13.90;99.90
17992;DHT22;9121;50.926;5.340;2023-08-07T05:55:34;13.90;99.90
17992;DHT22;9121;50.926;5.340;2023-08-07T05:58:01;14.00;99.90
17992;DHT22;9121;50.926;5.340;2023-08-07T06:00:28;14.00;99.90
17992;DHT22;9121;50.926;5.340;2023-08-07T06:02:55;14.00;99.90
17992;DHT22;9121;50.926;5.340;2023-08-07T06:05:22;14.00;99.90
17992;DHT22;9121;50.926;5.340;2023-08-07T06:07:49;14.10;99.90
17992;DHT22;9121;50.926;5.340;2023-08-07T06:10:17;14.10;99.90
17992;DHT22;9121;50.926;5.340;2023-08-07T06:12:45;14.20;99.90
17992;DHT22;9121;50.926;5.340;2023-08-07T06:15:12;14.20;99.90
17992;DHT22;9121;50.926;5.340;2023-08-07T06:17:39;14.30;99.90
17992;DHT22;9121;50.926;5.340;2023-08-07T06:20:07;14.40;99.90
17992;DHT22;9121;50.926;5.340;2023-08-07T06:22:36;14.40;99.90
17992;DHT22;9121;50.926;5.340;2023-08-07T06:25:04;14.50;99.90
17992;DHT22;9121;50.926;5.340;2023-08-07T06:27:32;14.60;99.90
17992;DHT22;9121;50.926;5.340;2023-08-07T06:30:00;14.60;99.90
17992;DHT22;9121;50.926;5.340;2023-08-07T06:32:28;14.80;99.90
17992;DHT22;9121;50.926;5.340;2023-08-07T06:34:55;14.70;99.90
17992;DHT22;9121;50.926;5.340;2023-08-07T06:37:22;14.70;99.90
17992;DHT22;9121;50.926;5.340;2023-08-07T06:39:49;14.80;99.90
17992;DHT22;9121;50.926;5.340;2023-08-07T06:42:16;14.80;99.90
17992;DHT22;9121;50.926;5.340;2023-08-07T06:44:43;14.90;99.90
17992;DHT22;9121;50.926;5.340;2023-08-07T06:47:11;14.90;99.90
17992;DHT22;9121;50.926;5.340;2023-08-07T06:49:38;15.00;99.90
17992;DHT22;9121;50.926;5.340;2023-08-07T06:52:06;15.00;99.90
17992;DHT22;9121;50.926;5.340;2023-08-07T06:54:33;15.00;99.90
17992;DHT22;9121;50.926;5.340;2023-08-07T06:56:59;15.00;99.90
17992;DHT22;9121;50.926;5.340;2023-08-07T06:59:26;15.00;99.90
17992;DHT22;9121;50.926;5.340;2023-08-07T07:01:54;15.10;99.90
17992;DHT22;9121;50.926;5.340;2023-08-07T07:04:22;15.20;99.90
17992;DHT22;9121;50.926;5.340;2023-08-07T07:06:49;15.30;99.90
17992;DHT22;9121;50.926;5.340;2023-08-07T07:09:16;15.40;99.90
17992;DHT22;9121;50.926;5.340;2023-08-07T07:11:43;15.40;99.90
17992;DHT22;9121;50.926;5.340;2023-08-07T07:14:11;15.50;99.90
17992;DHT22;9121;50.926;5.340;2023-08-07T07:16:38;15.50;99.90
17992;DHT22;9121;50.926;5.340;2023-08-07T07:19:07;15.60;99.90
17992;DHT22;9121;50.926;5.340;2023-08-07T07:21:36;15.60;99.90
17992;DHT22;9121;50.926;5.340;2023-08-07T07:24:04;15.70;99.90
17992;DHT22;9121;50.926;5.340;2023-08-07T07:26:31;15.70;99.90
17992;DHT22;9121;50.926;5.340;2023-08-07T07:28:58;15.90;99.90
17992;DHT22;9121;50.926;5.340;2023-08-07T07:31:25;15.80;99.90
17992;DHT22;9121;50.926;5.340;2023-08-07T07:33:52;15.80;99.90
17992;DHT22;9121;50.926;5.340;2023-08-07T07:36:20;15.90;99.90
17992;DHT22;9121;50.926;5.340;2023-08-07T07:38:48;16.00;99.90
17992;DHT22;9121;50.926;5.340;2023-08-07T07:41:15;16.20;99.90
17992;DHT22;9121;50.926;5.340;2023-08-07T07:43:43;16.30;99.90
17992;DHT22;9121;50.926;5.340;2023-08-07T07:46:10;16.60;99.90
17992;DHT22;9121;50.926;5.340;2023-08-07T07:48:37;16.90;99.90
17992;DHT22;9121;50.926;5.340;2023-08-07T07:51:04;17.10;99.90
17992;DHT22;9121;50.926;5.340;2023-08-07T07:53:31;17.20;99.90
17992;DHT22;9121;50.926;5.340;2023-08-07T07:55:59;17.10;99.90
17992;DHT22;9121;50.926;5.340;2023-08-07T07:58:26;17.10;99.90
17992;DHT22;9121;50.926;5.340;2023-08-07T08:00:53;17.10;99.90
17992;DHT22;9121;50.926;5.340;2023-08-07T08:03:21;17.00;99.90
17992;DHT22;9121;50.926;5.340;2023-08-07T08:05:50;17.10;99.90
17992;DHT22;9121;50.926;5.340;2023-08-07T08:08:17;17.10;99.90
17992;DHT22;9121;50.926;5.340;2023-08-07T08:10:45;17.10;99.90
17992;DHT22;9121;50.926;5.340;2023-08-07T08:13:14;17.00;99.90
17992;DHT22;9121;50.926;5.340;2023-08-07T08:15:41;17.00;99.90
17992;DHT22;9121;50.926;5.340;2023-08-07T08:18:09;16.90;99.90
17992;DHT22;9121;50.926;5.340;2023-08-07T08:20:36;17.10;99.90
17992;DHT22;9121;50.926;5.340;2023-08-07T08:23:03;17.20;99.90
17992;DHT22;9121;50.926;5.340;2023-08-07T08:25:30;17.40;99.90
17992;DHT22;9121;50.926;5.340;2023-08-07T08:27:58;17.50;99.90
17992;DHT22;9121;50.926;5.340;2023-08-07T08:30:28;17.30;99.90
17992;DHT22;9121;50.926;5.340;2023-08-07T08:32:55;17.20;99.90
17992;DHT22;9121;50.926;5.340;2023-08-07T08:35:22;17.30;99.90
17992;DHT22;9121;50.926;5.340;2023-08-07T08:37:49;17.40;99.90
17992;DHT22;9121;50.926;5.340;2023-08-07T08:40:16;17.50;99.90
17992;DHT22;9121;50.926;5.340;2023-08-07T08:42:46;17.70;99.90
17992;DHT22;9121;50.926;5.340;2023-08-07T08:45:14;17.70;99.90
17992;DHT22;9121;50.926;5.340;2023-08-07T08:47:43;17.70;99.90
17992;DHT22;9121;50.926;5.340;2023-08-07T08:50:13;17.80;99.90
17992;DHT22;9121;50.926;5.340;2023-08-07T08:52:42;17.70;99.90
17992;DHT22;9121;50.926;5.340;2023-08-07T08:55:10;17.70;99.90
17992;DHT22;9121;50.926;5.340;2023-08-07T08:57:38;17.80;99.90
17992;DHT22;9121;50.926;5.340;2023-08-07T09:00:06;17.90;99.90
17992;DHT22;9121;50.926;5.340;2023-08-07T09:02:45;18.00;99.90
17992;DHT22;9121;50.926;5.340;2023-08-07T09:05:14;18.00;99.90
17992;DHT22;9121;50.926;5.340;2023-08-07T09:07:41;18.10;99.90
17992;DHT22;9121;50.926;5.340;2023-08-07T09:10:10;18.20;99.90
17992;DHT22;9121;50.926;5.340;2023-08-07T09:12:40;18.30;99.90
17992;DHT22;9121;50.926;5.340;2023-08-07T09:15:09;18.30;99.90
17992;DHT22;9121;50.926;5.340;2023-08-07T09:17:39;18.30;99.90
17992;DHT22;9121;50.926;5.340;2023-08-07T09:20:09;18.20;99.90
17992;DHT22;9121;50.926;5.340;2023-08-07T09:22:37;18.20;99.90
17992;DHT22;9121;50.926;5.340;2023-08-07T09:25:06;18.40;99.90
17992;DHT22;9121;50.926;5.340;2023-08-07T09:27:35;18.70;99.90
17992;DHT22;9121;50.926;5.340;2023-08-07T09:30:05;18.60;99.90
17992;DHT22;9121;50.926;5.340;2023-08-07T09:32:34;18.30;99.90
17992;DHT22;9121;50.926;5.340;2023-08-07T09:35:02;18.30;99.90
17992;DHT22;9121;50.926;5.340;2023-08-07T09:37:31;18.20;99.90
17992;DHT22;9121;50.926;5.340;2023-08-07T09:40:00;18.10;99.90
17992;DHT22;9121;50.926;5.340;2023-08-07T09:42:31;17.80;99.90
17992;DHT22;9121;50.926;5.340;2023-08-07T09:45:00;17.80;99.90
17992;DHT22;9121;50.926;5.340;2023-08-07T09:47:27;17.90;99.90
17992;DHT22;9121;50.926;5.340;2023-08-07T09:49:55;18.20;99.90
17992;DHT22;9121;50.926;5.340;2023-08-07T09:52:24;18.60;99.90
17992;DHT22;9121;50.926;5.340;2023-08-07T09:54:57;18.90;99.90
17992;DHT22;9121;50.926;5.340;2023-08-07T09:57:24;18.80;99.90
17992;DHT22;9121;50.926;5.340;2023-08-07T09:59:52;18.40;99.90
17992;DHT22;9121;50.926;5.340;2023-08-07T10:02:19;18.30;99.90
17992;DHT22;9121;50.926;5.340;2023-08-07T10:04:48;18.30;99.90
17992;DHT22;9121;50.926;5.340;2023-08-07T10:07:16;18.20;99.90
17992;DHT22;9121;50.926;5.340;2023-08-07T10:09:44;18.20;99.90
17992;DHT22;9121;50.926;5.340;2023-08-07T10:12:14;18.30;99.90
17992;DHT22;9121;50.926;5.340;2023-08-07T10:14:43;18.30;99.90
17992;DHT22;9121;50.926;5.340;2023-08-07T10:17:11;18.50;99.90
17992;DHT22;9121;50.926;5.340;2023-08-07T10:19:38;18.80;99.90
17992;DHT22;9121;50.926;5.340;2023-08-07T10:22:06;19.00;99.90
17992;DHT22;9121;50.926;5.340;2023-08-07T10:24:35;19.20;99.90
17992;DHT22;9121;50.926;5.340;2023-08-07T10:27:03;19.20;99.90
17992;DHT22;9121;50.926;5.340;2023-08-07T10:29:33;19.20;99.90
17992;DHT22;9121;50.926;5.340;2023-08-07T10:32:02;19.30;99.90
17992;DHT22;9121;50.926;5.340;2023-08-07T10:34:29;19.60;99.90
17992;DHT22;9121;50.926;5.340;2023-08-07T10:36:57;19.80;99.90
17992;DHT22;9121;50.926;5.340;2023-08-07T10:39:24;20.10;99.90
17992;DHT22;9121;50.926;5.340;2023-08-07T10:41:53;20.10;99.90
17992;DHT22;9121;50.926;5.340;2023-08-07T10:44:21;20.10;99.90
17992;DHT22;9121;50.926;5.340;2023-08-07T10:46:52;20.10;99.90
17992;DHT22;9121;50.926;5.340;2023-08-07T10:49:33;20.00;99.90
17992;DHT22;9121;50.926;5.340;2023-08-07T10:52:08;19.80;99.90
17992;DHT22;9121;50.926;5.340;2023-08-07T10:54:40;19.80;99.90
17992;DHT22;9121;50.926;5.340;2023-08-07T10:57:11;19.80;99.90
17992;DHT22;9121;50.926;5.340;2023-08-07T10:59:44;19.80;99.90
17992;DHT22;9121;50.926;5.340;2023-08-07T11:02:21;20.00;99.90
17992;DHT22;9121;50.926;5.340;2023-08-07T11:04:48;20.20;99.90
17992;DHT22;9121;50.926;5.340;2023-08-07T11:07:23;20.50;99.90
17992;DHT22;9121;50.926;5.340;2023-08-07T11:09:50;20.50;99.90
17992;DHT22;9121;50.926;5.340;2023-08-07T11:12:17;20.20;99.90
17992;DHT22;9121;50.926;5.340;2023-08-07T11:14:44;19.70;99.90
17992;DHT22;9121;50.926;5.340;2023-08-07T11:17:12;19.40;99.90
17992;DHT22;9121;50.926;5.340;2023-08-07T11:19:39;19.40;99.90
17992;DHT22;9121;50.926;5.340;2023-08-07T11:22:06;19.40;99.90
17992;DHT22;9121;50.926;5.340;2023-08-07T11:24:33;19.60;99.90
17992;DHT22;9121;50.926;5.340;2023-08-07T11:27:00;20.00;99.90
17992;DHT22;9121;50.926;5.340;2023-08-07T11:29:27;20.30;99.90
17992;DHT22;9121;50.926;5.340;2023-08-07T11:31:56;20.40;99.90
17992;DHT22;9121;50.926;5.340;2023-08-07T11:34:25;20.80;99.90
17992;DHT22;9121;50.926;5.340;2023-08-07T11:36:52;21.20;99.90
17992;DHT22;9121;50.926;5.340;2023-08-07T11:39:20;21.20;99.90
17992;DHT22;9121;50.926;5.340;2023-08-07T11:41:49;21.10;99.90
17992;DHT22;9121;50.926;5.340;2023-08-07T11:44:18;20.90;99.90
17992;DHT22;9121;50.926;5.340;2023-08-07T11:46:45;20.40;99.90
17992;DHT22;9121;50.926;5.340;2023-08-07T11:49:12;20.40;99.90
17992;DHT22;9121;50.926;5.340;2023-08-07T11:51:40;20.70;99.90
17992;DHT22;9121;50.926;5.340;2023-08-07T11:54:13;20.70;99.90
17992;DHT22;9121;50.926;5.340;2023-08-07T11:56:41;20.80;99.90
17992;DHT22;9121;50.926;5.340;2023-08-07T11:59:08;20.80;99.90
17992;DHT22;9121;50.926;5.340;2023-08-07T12:01:38;21.10;99.90
17992;DHT22;9121;50.926;5.340;2023-08-07T12:04:09;21.10;99.90
17992;DHT22;9121;50.926;5.340;2023-08-07T12:06:37;21.30;99.90
17992;DHT22;9121;50.926;5.340;2023-08-07T12:09:07;21.60;99.90
17992;DHT22;9121;50.926;5.340;2023-08-07T12:11:38;21.70;99.90
17992;DHT22;9121;50.926;5.340;2023-08-07T12:14:05;21.80;99.90
17992;DHT22;9121;50.926;5.340;2023-08-07T12:16:33;22.00;99.90
17992;DHT22;9121;50.926;5.340;2023-08-07T12:19:00;22.20;99.90
17992;DHT22;9121;50.926;5.340;2023-08-07T12:21:27;22.10;99.90
17992;DHT22;9121;50.926;5.340;2023-08-07T12:23:55;22.20;99.90
17992;DHT22;9121;50.926;5.340;2023-08-07T12:26:24;22.40;99.90
17992;DHT22;9121;50.926;5.340;2023-08-07T12:28:51;22.60;99.90
17992;DHT22;9121;50.926;5.340;2023-08-07T12:31:18;22.20;99.90
17992;DHT22;9121;50.926;5.340;2023-08-07T12:33:45;22.40;99.90
17992;DHT22;9121;50.926;5.340;2023-08-07T12:36:12;22.20;99.90
17992;DHT22;9121;50.926;5.340;2023-08-07T12:38:40;21.80;99.90
17992;DHT22;9121;50.926;5.340;2023-08-07T12:41:07;21.70;99.90
17992;DHT22;9121;50.926;5.340;2023-08-07T12:43:35;21.60;99.90
17992;DHT22;9121;50.926;5.340;2023-08-07T12:46:02;21.60;99.90
17992;DHT22;9121;50.926;5.340;2023-08-07T12:48:29;22.30;99.90
17992;DHT22;9121;50.926;5.340;2023-08-07T12:50:56;23.10;99.90
17992;DHT22;9121;50.926;5.340;2023-08-07T12:53:23;23.50;99.90
17992;DHT22;9121;50.926;5.340;2023-08-07T12:55:50;23.00;99.90
17992;DHT22;9121;50.926;5.340;2023-08-07T12:58:17;22.60;99.90
17992;DHT22;9121;50.926;5.340;2023-08-07T13:00:50;22.30;99.90
17992;DHT22;9121;50.926;5.340;2023-08-07T13:03:16;22.20;99.90
17992;DHT22;9121;50.926;5.340;2023-08-07T13:05:43;23.00;99.90
17992;DHT22;9121;50.926;5.340;2023-08-07T13:08:11;23.60;99.90
17992;DHT22;9121;50.926;5.340;2023-08-07T13:10:38;24.00;99.90
17992;DHT22;9121;50.926;5.340;2023-08-07T13:13:05;24.60;99.90
17992;DHT22;9121;50.926;5.340;2023-08-07T13:15:32;25.00;99.90
17992;DHT22;9121;50.926;5.340;2023-08-07T13:18:00;25.20;99.90
17992;DHT22;9121;50.926;5.340;2023-08-07T13:20:27;25.10;99.40
17992;DHT22;9121;50.926;5.340;2023-08-07T13:22:59;25.20;99.10
17992;DHT22;9121;50.926;5.340;2023-08-07T13:25:26;25.20;99.40
17992;DHT22;9121;50.926;5.340;2023-08-07T13:27:52;25.30;98.60
17992;DHT22;9121;50.926;5.340;2023-08-07T13:30:19;25.50;97.40
17992;DHT22;9121;50.926;5.340;2023-08-07T13:32:46;25.80;96.60
17992;DHT22;9121;50.926;5.340;2023-08-07T13:35:15;26.00;96.30
17992;DHT22;9121;50.926;5.340;2023-08-07T13:37:42;25.80;96.20
17992;DHT22;9121;50.926;5.340;2023-08-07T13:40:09;25.80;96.80
17992;DHT22;9121;50.926;5.340;2023-08-07T13:42:39;25.60;96.20
17992;DHT22;9121;50.926;5.340;2023-08-07T13:45:07;25.80;96.10
17992;DHT22;9121;50.926;5.340;2023-08-07T13:47:35;25.70;95.50
17992;DHT22;9121;50.926;5.340;2023-08-07T13:50:03;25.60;95.60
17992;DHT22;9121;50.926;5.340;2023-08-07T13:52:34;25.50;96.00
17992;DHT22;9121;50.926;5.340;2023-08-07T13:55:01;25.30;96.10
17992;DHT22;9121;50.926;5.340;2023-08-07T13:57:28;24.70;96.90
17992;DHT22;9121;50.926;5.340;2023-08-07T13:59:55;24.10;96.90
17992;DHT22;9121;50.926;5.340;2023-08-07T14:02:22;23.50;98.00
17992;DHT22;9121;50.926;5.340;2023-08-07T14:04:49;23.30;98.60
17992;DHT22;9121;50.926;5.340;2023-08-07T14:07:16;23.70;98.40
17992;DHT22;9121;50.926;5.340;2023-08-07T14:09:45;23.80;98.00
17992;DHT22;9121;50.926;5.340;2023-08-07T14:12:11;23.50;98.20
17992;DHT22;9121;50.926;5.340;2023-08-07T14:14:38;23.80;98.30
17992;DHT22;9121;50.926;5.340;2023-08-07T14:17:06;23.90;97.70
17992;DHT22;9121;50.926;5.340;2023-08-07T14:19:33;23.70;98.50
17992;DHT22;9121;50.926;5.340;2023-08-07T14:22:00;23.30;98.50
17992;DHT22;9121;50.926;5.340;2023-08-07T14:24:27;23.00;99.40
17992;DHT22;9121;50.926;5.340;2023-08-07T14:26:55;23.10;99.40
17992;DHT22;9121;50.926;5.340;2023-08-07T14:29:22;23.10;99.60
17992;DHT22;9121;50.926;5.340;2023-08-07T14:31:49;23.40;99.90
17992;DHT22;9121;50.926;5.340;2023-08-07T14:34:16;23.70;99.50
17992;DHT22;9121;50.926;5.340;2023-08-07T14:36:42;23.80;99.30
17992;DHT22;9121;50.926;5.340;2023-08-07T14:39:09;23.50;99.30
17992;DHT22;9121;50.926;5.340;2023-08-07T14:41:36;23.20;99.70
17992;DHT22;9121;50.926;5.340;2023-08-07T14:44:05;22.80;99.90
17992;DHT22;9121;50.926;5.340;2023-08-07T14:46:32;22.30;99.90
17992;DHT22;9121;50.926;5.340;2023-08-07T14:48:59;22.10;99.90
17992;DHT22;9121;50.926;5.340;2023-08-07T14:51:26;22.10;99.90
17992;DHT22;9121;50.926;5.340;2023-08-07T14:53:53;22.60;99.90
17992;DHT22;9121;50.926;5.340;2023-08-07T14:56:19;23.40;99.90
17992;DHT22;9121;50.926;5.340;2023-08-07T14:58:46;24.30;99.90
17992;DHT22;9121;50.926;5.340;2023-08-07T15:01:15;24.40;99.40
17992;DHT22;9121;50.926;5.340;2023-08-07T15:03:42;24.10;99.30
17992;DHT22;9121;50.926;5.340;2023-08-07T15:06:09;23.50;99.90
17992;DHT22;9121;50.926;5.340;2023-08-07T15:08:36;23.50;99.90
17992;DHT22;9121;50.926;5.340;2023-08-07T15:11:03;24.30;99.80
17992;DHT22;9121;50.926;5.340;2023-08-07T15:13:30;24.70;99.20
17992;DHT22;9121;50.926;5.340;2023-08-07T15:15:58;24.10;99.50
17992;DHT22;9121;50.926;5.340;2023-08-07T15:18:27;23.80;99.90
17992;DHT22;9121;50.926;5.340;2023-08-07T15:20:54;23.30;99.90
17992;DHT22;9121;50.926;5.340;2023-08-07T15:23:22;23.10;99.90
17992;DHT22;9121;50.926;5.340;2023-08-07T15:25:50;23.50;99.90
17992;DHT22;9121;50.926;5.340;2023-08-07T15:28:17;24.70;99.60
17992;DHT22;9121;50.926;5.340;2023-08-07T15:30:47;25.10;98.10
17992;DHT22;9121;50.926;5.340;2023-08-07T15:33:15;24.50;99.10
17992;DHT22;9121;50.926;5.340;2023-08-07T15:35:44;23.80;99.30
17992;DHT22;9121;50.926;5.340;2023-08-07T15:38:11;23.30;99.80
17992;DHT22;9121;50.926;5.340;2023-08-07T15:40:38;23.10;99.90
17992;DHT22;9121;50.926;5.340;2023-08-07T15:43:06;23.70;99.90
17992;DHT22;9121;50.926;5.340;2023-08-07T15:45:33;24.20;99.60
17992;DHT22;9121;50.926;5.340;2023-08-07T15:48:00;23.70;99.70